createdAt,value
2018-08-08T00:01:17.217Z,16.93
2018-08-08T00:03:44.538Z,15.30
2018-08-08T00:06:12.116Z,14.83
2018-08-08T00:08:39.861Z,18.40
2018-08-08T00:11:08.485Z,20.03
2018-08-08T00:13:36.029Z,13.03
2018-08-08T00:16:03.597Z,17.57
2018-08-08T00:18:30.959Z,18.17
2018-08-08T00:20:58.668Z,14.40
2018-08-08T00:23:26.260Z,17.27
2018-08-08T00:25:53.866Z,14.43
2018-08-08T00:28:21.391Z,13.00
2018-08-08T00:30:48.867Z,14.80
2018-08-08T00:33:16.364Z,13.30
2018-08-08T00:35:43.673Z,16.73
2018-08-08T00:38:11.132Z,15.27
2018-08-08T00:40:38.482Z,12.37
2018-08-08T00:43:05.865Z,17.83
2018-08-08T00:45:33.230Z,12.93
2018-08-08T00:48:00.522Z,16.67
2018-08-08T00:50:27.928Z,38.70
2018-08-08T00:52:55.462Z,21.77
2018-08-08T00:55:22.977Z,17.37
2018-08-08T00:57:50.346Z,20.50
2018-08-08T01:00:18.035Z,24.60
2018-08-08T01:02:45.823Z,17.07
2018-08-08T01:05:14.173Z,20.13
2018-08-08T01:07:42.318Z,19.13
2018-08-08T01:10:09.712Z,18.20
2018-08-08T01:12:37.077Z,21.83
2018-08-08T01:15:07.193Z,19.17
2018-08-08T01:17:34.529Z,14.43
2018-08-08T01:20:01.928Z,14.33
2018-08-08T01:22:29.419Z,17.50
2018-08-08T01:24:56.765Z,19.83
2018-08-08T01:27:24.078Z,14.23
2018-08-08T01:29:51.429Z,15.37
2018-08-08T01:32:18.902Z,15.80
2018-08-08T01:34:46.149Z,19.73
2018-08-08T01:37:13.676Z,19.97
2018-08-08T01:39:41.020Z,14.37
2018-08-08T01:42:08.456Z,17.23
2018-08-08T01:44:35.995Z,12.90
2018-08-08T01:47:03.353Z,16.63
2018-08-08T01:49:30.703Z,16.60
2018-08-08T01:51:58.084Z,15.60
2018-08-08T01:54:25.444Z,16.73
2018-08-08T01:56:52.822Z,15.27
2018-08-08T01:59:20.325Z,16.27
2018-08-08T02:01:47.822Z,15.40
2018-08-08T02:04:15.228Z,14.63
2018-08-08T02:06:42.973Z,18.50
2018-08-08T02:09:10.452Z,17.77
2018-08-08T02:14:48.959Z,18.83
2018-08-08T02:17:16.238Z,20.67
2018-08-08T02:19:43.432Z,18.90
2018-08-08T02:22:10.737Z,17.40
2018-08-08T02:24:37.949Z,17.13
2018-08-08T02:27:05.885Z,18.10
2018-08-08T02:29:33.128Z,18.33
2018-08-08T02:32:00.495Z,18.60
2018-08-08T02:34:27.831Z,19.17
2018-08-08T02:36:55.226Z,18.90
2018-08-08T02:39:22.698Z,21.97
2018-08-08T02:41:49.911Z,27.70
2018-08-08T02:44:17.602Z,22.30
2018-08-08T02:46:44.873Z,22.27
2018-08-08T02:49:12.307Z,20.37
2018-08-08T02:51:39.582Z,23.10
2018-08-08T02:54:06.761Z,24.67
2018-08-08T02:56:33.994Z,27.10
2018-08-08T02:59:01.259Z,25.33
2018-08-08T03:01:28.499Z,23.20
2018-08-08T03:03:56.540Z,23.07
2018-08-08T03:06:24.150Z,23.03
2018-08-08T03:08:51.747Z,23.40
2018-08-08T03:11:18.957Z,20.47
2018-08-08T03:13:46.456Z,21.73
2018-08-08T03:16:14.322Z,22.57
2018-08-08T03:18:41.705Z,20.17
2018-08-08T03:21:08.979Z,18.53
2018-08-08T03:23:36.313Z,19.83
2018-08-08T03:26:04.254Z,20.57
2018-08-08T03:28:31.444Z,21.67
2018-08-08T03:30:58.677Z,23.17
2018-08-08T03:33:25.911Z,27.07
2018-08-08T03:35:53.506Z,27.57
2018-08-08T03:38:20.879Z,28.33
2018-08-08T03:40:48.067Z,27.27
2018-08-08T03:43:15.389Z,29.40
2018-08-08T03:45:42.821Z,28.87
2018-08-08T03:48:10.249Z,31.77
2018-08-08T03:50:37.475Z,33.30
2018-08-08T03:53:04.843Z,34.90
2018-08-08T03:55:32.073Z,32.80
2018-08-08T03:57:59.278Z,33.83
2018-08-08T04:00:26.518Z,32.70
2018-08-08T04:02:53.891Z,32.97
2018-08-08T04:05:21.021Z,29.77
2018-08-08T04:07:48.362Z,29.93
2018-08-08T04:10:16.644Z,30.70
2018-08-08T04:12:43.917Z,28.57
2018-08-08T04:15:16.020Z,30.83
2018-08-08T04:17:43.908Z,30.47
2018-08-08T04:20:11.316Z,32.83
2018-08-08T04:22:38.935Z,32.33
2018-08-08T04:25:08.037Z,33.00
2018-08-08T04:27:35.313Z,34.37
2018-08-08T04:30:04.483Z,35.27
2018-08-08T04:32:31.724Z,31.73
2018-08-08T04:34:59.190Z,34.60
2018-08-08T04:37:26.374Z,34.57
2018-08-08T04:39:53.636Z,33.47
2018-08-08T04:42:20.950Z,34.30
2018-08-08T04:44:48.501Z,34.60
2018-08-08T04:47:15.701Z,32.90
2018-08-08T04:49:43.194Z,29.60
2018-08-08T04:52:10.563Z,31.40
2018-08-08T04:54:37.798Z,32.33
2018-08-08T04:57:05.516Z,31.93
2018-08-08T04:59:33.008Z,28.93
2018-08-08T05:02:00.301Z,25.13
2018-08-08T05:04:27.545Z,23.80
2018-08-08T05:06:54.982Z,25.77
2018-08-08T05:09:22.207Z,22.27
2018-08-08T05:11:49.414Z,24.13
2018-08-08T05:14:16.877Z,21.83
2018-08-08T05:16:44.393Z,22.03
2018-08-08T05:19:11.723Z,22.00
2018-08-08T05:21:38.976Z,23.10
2018-08-08T05:24:06.367Z,24.23
2018-08-08T05:26:34.087Z,24.90
2018-08-08T05:29:01.354Z,25.57
2018-08-08T05:31:28.807Z,23.17
2018-08-08T05:33:56.489Z,26.27
2018-08-08T05:36:24.429Z,28.50
2018-08-08T05:38:51.739Z,28.83
2018-08-08T05:41:19.125Z,31.40
2018-08-08T05:43:46.469Z,31.10
2018-08-08T05:46:13.701Z,29.53
2018-08-08T05:48:41.017Z,28.73
2018-08-08T05:51:08.243Z,30.33
2018-08-08T05:53:35.476Z,39.50
2018-08-08T05:56:02.749Z,36.50
2018-08-08T05:58:29.998Z,36.77
2018-08-08T06:00:57.371Z,36.90
2018-08-08T06:03:24.621Z,35.67
2018-08-08T06:05:51.898Z,36.50
2018-08-08T06:08:19.280Z,35.30
2018-08-08T06:10:46.509Z,32.80
2018-08-08T06:13:13.718Z,32.13
2018-08-08T06:15:40.964Z,34.63
2018-08-08T06:18:08.997Z,33.80
2018-08-08T06:20:36.349Z,35.73
2018-08-08T06:23:04.189Z,30.77
2018-08-08T06:25:31.474Z,31.27
2018-08-08T06:27:58.813Z,30.30
2018-08-08T06:30:27.006Z,31.60
2018-08-08T06:32:55.528Z,30.87
2018-08-08T06:35:24.709Z,30.57
2018-08-08T06:37:52.666Z,30.27
2018-08-08T06:40:19.926Z,31.23
2018-08-08T06:42:47.189Z,35.03
2018-08-08T06:45:16.742Z,31.73
2018-08-08T06:47:44.150Z,28.63
2018-08-08T06:50:12.172Z,22.30
2018-08-08T06:52:39.705Z,17.40
2018-08-08T06:55:08.504Z,18.27
2018-08-08T06:57:35.907Z,14.80
2018-08-08T07:00:04.808Z,14.00
2018-08-08T07:02:32.089Z,13.93
2018-08-08T07:04:59.444Z,15.07
2018-08-08T07:07:26.746Z,18.13
2018-08-08T07:09:54.022Z,18.63
2018-08-08T07:12:21.310Z,18.03
2018-08-08T07:14:48.590Z,22.07
2018-08-08T07:17:16.415Z,20.23
2018-08-08T07:19:43.671Z,21.13
2018-08-08T07:22:11.070Z,22.23
2018-08-08T07:24:38.449Z,22.97
2018-08-08T07:27:05.721Z,22.73
2018-08-08T07:29:32.995Z,21.13
2018-08-08T07:32:00.761Z,23.37
2018-08-08T07:34:28.169Z,23.87
2018-08-08T07:36:55.845Z,22.93
2018-08-08T07:39:23.870Z,24.53
2018-08-08T07:41:51.162Z,23.17
2018-08-08T07:44:18.521Z,26.43
2018-08-08T07:46:45.833Z,25.23
2018-08-08T07:49:13.061Z,22.53
2018-08-08T07:51:41.409Z,21.93
2018-08-08T07:54:08.687Z,20.30
2018-08-08T07:56:35.970Z,22.53
2018-08-08T07:59:03.871Z,21.30
2018-08-08T08:01:31.143Z,18.57
2018-08-08T08:03:59.375Z,17.63
2018-08-08T08:06:26.618Z,18.03
2018-08-08T08:08:53.871Z,14.90
2018-08-08T08:11:21.153Z,15.77
2018-08-08T08:13:48.973Z,13.53
2018-08-08T08:16:16.345Z,13.13
2018-08-08T08:18:43.743Z,13.13
2018-08-08T08:21:11.175Z,17.87
2018-08-08T08:23:38.485Z,13.13
2018-08-08T08:26:06.186Z,12.43
2018-08-08T08:28:33.492Z,14.23
2018-08-08T08:31:00.814Z,13.90
2018-08-08T08:33:28.110Z,13.87
2018-08-08T08:35:55.412Z,12.70
2018-08-08T08:38:22.593Z,12.33
2018-08-08T08:40:49.925Z,13.40
2018-08-08T08:43:17.232Z,12.03
2018-08-08T08:45:44.572Z,13.80
2018-08-08T08:48:12.005Z,17.00
2018-08-08T08:50:39.327Z,12.63
2018-08-08T08:53:06.628Z,14.37
2018-08-08T08:55:33.872Z,12.23
2018-08-08T08:58:01.194Z,15.03
2018-08-08T09:00:28.452Z,10.87
2018-08-08T09:02:55.758Z,10.60
2018-08-08T09:05:22.985Z,13.40
2018-08-08T09:07:50.356Z,16.03
2018-08-08T09:10:17.697Z,15.17
2018-08-08T09:12:44.977Z,12.03
2018-08-08T09:15:13.125Z,13.07
2018-08-08T09:17:40.495Z,14.03
2018-08-08T09:20:08.126Z,13.83
2018-08-08T09:22:36.316Z,11.73
2018-08-08T09:25:03.826Z,13.53
2018-08-08T09:27:31.208Z,12.33
2018-08-08T09:30:04.181Z,15.93
2018-08-08T09:32:31.493Z,13.27
2018-08-08T09:34:58.855Z,11.30
2018-08-08T09:37:26.253Z,11.03
2018-08-08T09:39:53.657Z,12.83
2018-08-08T09:42:20.934Z,10.57
2018-08-08T09:44:48.865Z,11.80
2018-08-08T09:47:16.082Z,13.70
2018-08-08T09:49:43.514Z,14.83
2018-08-08T09:52:10.909Z,12.83
2018-08-08T09:54:38.186Z,12.20
2018-08-08T09:57:05.615Z,14.70
2018-08-08T09:59:33.070Z,12.90
2018-08-08T10:02:06.073Z,11.07
2018-08-08T10:04:34.844Z,14.70
2018-08-08T10:07:03.636Z,12.03
2018-08-08T10:09:31.737Z,11.23
2018-08-08T10:11:59.325Z,10.83
2018-08-08T10:14:26.671Z,11.53
2018-08-08T10:16:53.996Z,12.50
2018-08-08T10:19:21.644Z,10.77
2018-08-08T10:21:48.941Z,10.90
2018-08-08T10:24:16.205Z,13.93
2018-08-08T10:26:43.485Z,13.77
2018-08-08T10:29:10.762Z,10.80
2018-08-08T10:31:38.011Z,9.20
2018-08-08T10:34:05.285Z,9.50
2018-08-08T10:36:32.895Z,17.83
2018-08-08T10:39:00.196Z,10.37
2018-08-08T10:41:27.511Z,11.67
2018-08-08T10:43:55.521Z,11.60
2018-08-08T10:46:22.797Z,10.33
2018-08-08T10:48:50.153Z,9.80
2018-08-08T10:51:17.455Z,10.10
2018-08-08T10:53:45.576Z,10.03
2018-08-08T10:56:12.860Z,11.70
2018-08-08T10:58:40.115Z,13.70
2018-08-08T11:01:07.509Z,10.60
2018-08-08T11:03:34.805Z,9.23
2018-08-08T11:06:02.145Z,9.23
2018-08-08T11:08:29.403Z,9.90
2018-08-08T11:10:56.753Z,9.40
2018-08-08T11:13:24.110Z,9.10
2018-08-08T11:15:51.530Z,8.80
2018-08-08T11:18:18.843Z,10.23
2018-08-08T11:20:46.310Z,9.70
2018-08-08T11:23:13.690Z,11.43
2018-08-08T11:25:40.938Z,11.77
2018-08-08T11:28:08.202Z,8.70
2018-08-08T11:30:42.282Z,8.97
2018-08-08T11:33:09.560Z,10.40
2018-08-08T11:35:36.799Z,9.77
2018-08-08T11:38:04.835Z,11.67
2018-08-08T11:40:32.130Z,10.33
2018-08-08T11:42:59.377Z,9.07
2018-08-08T11:45:26.748Z,14.93
2018-08-08T11:47:54.167Z,10.27
2018-08-08T11:50:21.602Z,9.37
2018-08-08T11:52:48.897Z,10.90
2018-08-08T11:55:16.248Z,13.20
2018-08-08T11:57:43.721Z,10.20
2018-08-08T12:00:11.321Z,10.73
2018-08-08T12:02:38.691Z,9.63
2018-08-08T12:05:06.359Z,10.77
2018-08-08T12:07:33.645Z,9.40
2018-08-08T12:10:00.990Z,8.50
2018-08-08T12:12:28.439Z,9.97
2018-08-08T12:14:55.771Z,8.93
2018-08-08T12:17:23.063Z,12.90
2018-08-08T12:19:50.508Z,11.47
2018-08-08T12:22:18.433Z,10.67
2018-08-08T12:24:45.731Z,9.80
2018-08-08T12:27:13.105Z,9.50
2018-08-08T12:29:40.519Z,11.80
2018-08-08T12:32:07.895Z,10.03
2018-08-08T12:34:35.215Z,10.37
2018-08-08T12:37:03.233Z,11.83
2018-08-08T12:39:30.663Z,11.83
2018-08-08T12:41:57.925Z,13.33
2018-08-08T12:44:25.201Z,9.90
2018-08-08T12:46:52.453Z,12.03
2018-08-08T12:49:19.799Z,11.67
2018-08-08T12:51:47.160Z,12.03
2018-08-08T12:54:14.451Z,9.70
2018-08-08T12:56:41.936Z,13.93
2018-08-08T12:59:09.325Z,11.33
2018-08-08T13:01:36.866Z,10.03
2018-08-08T13:04:04.327Z,10.80
2018-08-08T13:06:31.639Z,7.83
2018-08-08T13:08:58.946Z,6.50
2018-08-08T13:11:27.210Z,6.97
2018-08-08T13:13:54.595Z,7.53
2018-08-08T13:16:21.980Z,7.80
2018-08-08T13:18:49.318Z,9.60
2018-08-08T13:21:16.731Z,9.83
2018-08-08T13:23:44.115Z,9.20
2018-08-08T13:26:11.467Z,12.53
2018-08-08T13:28:38.771Z,10.33
2018-08-08T13:31:06.181Z,11.57
2018-08-08T13:33:33.378Z,11.77
2018-08-08T13:36:00.751Z,13.83
2018-08-08T13:38:27.989Z,10.63
2018-08-08T13:40:55.320Z,12.67
2018-08-08T13:43:23.004Z,13.20
2018-08-08T13:45:50.338Z,12.97
2018-08-08T13:48:17.742Z,11.47
2018-08-08T13:50:45.149Z,11.83
2018-08-08T13:53:12.511Z,10.97
2018-08-08T13:55:39.754Z,9.53
2018-08-08T13:58:07.013Z,10.57
2018-08-08T14:00:34.396Z,9.77
2018-08-08T14:03:01.862Z,9.47
2018-08-08T14:05:29.169Z,8.60
2018-08-08T14:07:56.381Z,8.77
2018-08-08T14:10:23.598Z,9.10
2018-08-08T14:12:51.637Z,10.37
2018-08-08T14:15:18.983Z,7.93
2018-08-08T14:17:46.437Z,10.33
2018-08-08T14:20:13.704Z,10.83
2018-08-08T14:22:41.845Z,11.30
2018-08-08T14:25:09.483Z,8.83
2018-08-08T14:27:37.254Z,7.60
2018-08-08T14:30:05.122Z,9.20
2018-08-08T14:32:32.411Z,8.60
2018-08-08T14:35:00.296Z,8.57
2018-08-08T14:37:27.591Z,11.40
2018-08-08T14:39:55.683Z,10.43
2018-08-08T14:42:22.988Z,11.93
2018-08-08T14:44:50.990Z,8.47
2018-08-08T14:47:18.464Z,6.13
2018-08-08T14:49:46.058Z,8.53
2018-08-08T14:52:13.329Z,7.60
2018-08-08T14:54:40.671Z,8.10
2018-08-08T14:57:08.524Z,9.23
2018-08-08T14:59:35.779Z,6.57
2018-08-08T15:02:03.723Z,7.07
2018-08-08T15:04:31.093Z,7.57
2018-08-08T15:06:58.461Z,6.70
2018-08-08T15:09:26.401Z,6.90
2018-08-08T15:11:53.661Z,5.53
2018-08-08T15:14:20.869Z,4.70
2018-08-08T15:16:48.675Z,5.73
2018-08-08T15:19:15.944Z,3.60
2018-08-08T15:21:43.277Z,5.13
2018-08-08T15:24:10.465Z,4.57
2018-08-08T15:26:37.695Z,4.67
2018-08-08T15:29:04.900Z,4.60
2018-08-08T15:31:32.671Z,4.33
2018-08-08T15:34:00.015Z,6.60
2018-08-08T15:36:27.376Z,3.17
2018-08-08T15:38:54.578Z,5.93
2018-08-08T15:41:21.783Z,5.57
2018-08-08T15:43:49.058Z,4.13
2018-08-08T15:46:16.660Z,2.63
2018-08-08T15:48:44.039Z,4.73
2018-08-08T15:51:11.856Z,6.27
2018-08-08T15:53:39.093Z,2.47
2018-08-08T15:56:06.688Z,6.80
2018-08-08T15:58:33.878Z,7.00
2018-08-08T16:01:01.211Z,3.73
2018-08-08T16:03:28.690Z,5.50
2018-08-08T16:05:55.978Z,4.57
2018-08-08T16:08:23.200Z,5.20
2018-08-08T16:10:50.446Z,4.13
2018-08-08T16:13:18.180Z,3.03
2018-08-08T16:15:45.398Z,5.03
2018-08-08T16:18:12.769Z,4.40
2018-08-08T16:20:40.102Z,4.00
2018-08-08T16:23:07.356Z,4.37
2018-08-08T16:25:34.911Z,3.63
2018-08-08T16:28:02.367Z,3.93
2018-08-08T16:30:29.638Z,3.30
2018-08-08T16:32:57.094Z,3.87
2018-08-08T16:35:24.376Z,3.97
2018-08-08T16:37:51.813Z,4.70
2018-08-08T16:40:19.326Z,4.33
2018-08-08T16:42:46.771Z,3.67
2018-08-08T16:45:14.117Z,4.57
2018-08-08T16:50:15.466Z,5.60
2018-08-08T16:52:42.753Z,5.27
2018-08-08T16:55:10.341Z,3.17
2018-08-08T16:57:37.909Z,6.63
2018-08-08T17:00:07.496Z,4.43
2018-08-08T17:02:34.777Z,2.60
2018-08-08T17:05:03.473Z,2.57
2018-08-08T17:07:30.857Z,4.63
2018-08-08T17:09:58.144Z,3.43
2018-08-08T17:12:25.418Z,6.37
2018-08-08T17:14:53.725Z,3.80
2018-08-08T17:17:21.026Z,4.13
2018-08-08T17:19:48.374Z,3.30
2018-08-08T17:22:16.062Z,3.43
2018-08-08T17:24:43.621Z,5.27
2018-08-08T17:27:11.260Z,4.47
2018-08-08T17:29:39.535Z,4.73
2018-08-08T17:32:07.590Z,4.10
2018-08-08T17:34:35.022Z,2.90
2018-08-08T17:37:02.485Z,2.03
2018-08-08T17:39:30.491Z,4.00
2018-08-08T17:41:57.916Z,6.07
2018-08-08T17:44:25.875Z,2.63
2018-08-08T17:46:53.371Z,3.27
2018-08-08T17:49:20.658Z,4.03
2018-08-08T17:51:48.114Z,3.60
2018-08-08T17:54:15.349Z,3.47
2018-08-08T17:56:43.627Z,2.63
2018-08-08T17:59:10.866Z,3.33
2018-08-08T18:01:38.464Z,2.50
2018-08-08T18:04:05.900Z,4.57
2018-08-08T18:06:33.432Z,3.63
2018-08-08T18:09:00.831Z,2.10
2018-08-08T18:11:28.287Z,3.97
2018-08-08T18:13:55.833Z,3.93
2018-08-08T18:16:23.171Z,3.83
2018-08-08T18:18:50.454Z,4.37
2018-08-08T18:21:17.849Z,4.03
2018-08-08T18:23:45.305Z,4.40
2018-08-08T18:26:13.397Z,5.80
2018-08-08T18:28:40.742Z,2.67
2018-08-08T18:31:08.336Z,3.17
2018-08-08T18:33:35.964Z,3.97
2018-08-08T18:36:03.207Z,2.97
2018-08-08T18:38:30.753Z,3.70
2018-08-08T18:40:58.115Z,5.17
2018-08-08T18:43:25.635Z,5.27
2018-08-08T18:45:52.936Z,3.47
2018-08-08T18:48:20.696Z,3.80
2018-08-08T18:50:48.217Z,3.10
2018-08-08T18:53:15.706Z,4.07
2018-08-08T18:55:43.520Z,6.10
2018-08-08T18:58:11.078Z,2.80
2018-08-08T19:00:38.647Z,2.33
2018-08-08T19:03:06.247Z,6.03
2018-08-08T19:05:33.994Z,3.97
2018-08-08T19:08:01.361Z,4.40
2018-08-08T19:10:29.791Z,3.47
2018-08-08T19:12:57.240Z,6.10
2018-08-08T19:15:24.510Z,4.87
2018-08-08T19:17:52.345Z,2.93
2018-08-08T19:20:19.941Z,5.63
2018-08-08T19:22:47.638Z,3.10
2018-08-08T19:25:15.135Z,4.37
2018-08-08T19:27:42.549Z,5.83
2018-08-08T19:30:10.218Z,4.37
2018-08-08T19:32:38.075Z,4.07
2018-08-08T19:35:05.661Z,3.47
2018-08-08T19:37:33.406Z,3.77
2018-08-08T19:40:00.719Z,4.33
2018-08-08T19:42:28.724Z,5.37
2018-08-08T19:44:56.038Z,6.40
2018-08-08T19:47:23.662Z,6.23
2018-08-08T19:49:51.774Z,6.57
2018-08-08T19:52:19.243Z,5.37
2018-08-08T19:54:46.837Z,6.13
2018-08-08T19:57:14.227Z,5.13
2018-08-08T19:59:41.873Z,3.67
2018-08-08T20:02:09.269Z,4.97
2018-08-08T20:04:36.953Z,3.40
2018-08-08T20:07:04.357Z,3.97
2018-08-08T20:09:31.796Z,4.20
2018-08-08T20:11:58.992Z,5.43
2018-08-08T20:14:26.468Z,6.93
2018-08-08T20:16:53.915Z,2.40
2018-08-08T20:19:21.331Z,3.13
2018-08-08T20:21:48.637Z,5.37
2018-08-08T20:24:16.066Z,3.97
2018-08-08T20:26:44.047Z,3.93
2018-08-08T20:29:11.392Z,6.10
2018-08-08T20:31:38.707Z,5.83
2018-08-08T20:34:06.058Z,3.37
2018-08-08T20:36:33.380Z,4.67
2018-08-08T20:39:00.697Z,3.57
2018-08-08T20:41:28.037Z,3.90
2018-08-08T20:43:55.281Z,4.17
2018-08-08T20:46:22.529Z,4.27
2018-08-08T20:48:49.855Z,4.33
2018-08-08T20:51:17.139Z,5.00
2018-08-08T20:53:44.505Z,3.97
2018-08-08T20:56:11.755Z,3.47
2018-08-08T20:58:38.977Z,3.67
2018-08-08T21:01:06.458Z,2.87
2018-08-08T21:03:33.687Z,7.40
2018-08-08T21:06:01.311Z,9.77
2018-08-08T21:08:28.642Z,6.97
2018-08-08T21:10:55.893Z,4.33
2018-08-08T21:13:23.152Z,5.10
2018-08-08T21:15:50.414Z,5.63
2018-08-08T21:18:17.754Z,5.20
2018-08-08T21:20:45.027Z,4.00
2018-08-08T21:23:12.866Z,6.40
2018-08-08T21:25:40.178Z,4.23
2018-08-08T21:28:09.389Z,4.27
2018-08-08T21:30:36.653Z,4.63
2018-08-08T21:33:03.844Z,5.47
2018-08-08T21:35:31.109Z,4.70
2018-08-08T21:37:58.326Z,5.83
2018-08-08T21:40:25.580Z,3.70
2018-08-08T21:42:52.975Z,5.53
2018-08-08T21:45:20.933Z,5.50
2018-08-08T21:47:48.190Z,2.80
2018-08-08T21:50:15.505Z,6.97
2018-08-08T21:52:42.721Z,4.93
2018-08-08T21:55:21.417Z,5.70
2018-08-08T21:58:00.159Z,4.03
2018-08-08T22:00:39.002Z,5.70
2018-08-08T22:03:18.483Z,4.50
2018-08-08T22:05:57.641Z,3.53
2018-08-08T22:08:36.446Z,6.83
2018-08-08T22:11:16.893Z,5.47
2018-08-08T22:13:56.940Z,5.30
2018-08-08T22:16:36.186Z,4.20
2018-08-08T22:19:16.496Z,5.23
2018-08-08T22:21:44.326Z,5.57
2018-08-08T22:24:12.258Z,3.83
2018-08-08T22:26:39.762Z,4.60
2018-08-08T22:29:07.149Z,4.50
2018-08-08T22:31:34.457Z,6.67
2018-08-08T22:34:02.200Z,4.67
2018-08-08T22:36:36.306Z,7.10
2018-08-08T22:39:07.604Z,4.13
2018-08-08T22:41:34.929Z,4.37
2018-08-08T22:44:02.223Z,3.87
2018-08-08T22:46:29.628Z,5.33
2018-08-08T22:48:57.077Z,4.87
2018-08-08T22:51:24.321Z,4.67
2018-08-08T22:53:51.645Z,7.20
2018-08-08T22:56:19.125Z,4.60
2018-08-08T22:58:46.456Z,3.17
2018-08-08T23:01:13.753Z,4.80
2018-08-08T23:03:41.131Z,7.07
2018-08-08T23:06:08.426Z,5.07
2018-08-08T23:08:37.557Z,5.10
2018-08-08T23:11:06.179Z,4.27
2018-08-08T23:13:33.546Z,6.10
2018-08-08T23:16:00.886Z,4.40
2018-08-08T23:18:28.186Z,2.93
2018-08-08T23:20:55.448Z,4.93
2018-08-08T23:23:22.986Z,4.33
2018-08-08T23:25:50.379Z,3.90
2018-08-08T23:28:17.701Z,4.20
2018-08-08T23:30:45.048Z,4.13
2018-08-08T23:33:13.191Z,4.03
2018-08-08T23:35:40.558Z,6.53
2018-08-08T23:38:07.864Z,3.63
2018-08-08T23:40:35.316Z,4.73
2018-08-08T23:43:02.696Z,3.40
2018-08-08T23:45:30.037Z,4.50
2018-08-08T23:47:57.404Z,6.33
2018-08-08T23:50:24.644Z,3.47
2018-08-08T23:52:51.906Z,4.60
2018-08-08T23:55:19.236Z,5.93
2018-08-08T23:57:46.467Z,5.23
